Pagina principale
METAR-TAF:

METAR-TAF

Aeroporti :

Firenze, Italia

Aeroporto di Firenze-Peretola

latitudine: 43-48N, longitudine: 011-12E, altezza: 40 m

Osservazione

Il bollettino è stato emesso 25 minuti fa, alle 06:20 UTC
Vento 1 kt da direzioni variabili
Temperature 20°C
Umidità 78%
Pressione 1006 hPa
Visibilità 10 km o più
nessuna nube inferiore a 1500 m e nessun cumulonembo

METAR: LIRQ 260620Z VRB01KT CAVOK 20/16 Q1006

Ora: 08:45 (06:45 UTC)

Previsione

Il bollettino è stato emesso 1 ora e 45 minuti fa, alle 05:00 UTC
Previsione valida dal 26 alle 06 UTC al 27 alle 06 UTC
Vento 5 kt da direzioni variabili
Visibilità 10 km o più
Nubi sparse ad un'altezza di 4000 ft
Evoluzione graduale
dal 26 alle 10 UTC al 26 alle 12 UTC
Vento 10 kt da ovest/sud-ovest
Evoluzione graduale
dal 26 alle 16 UTC al 26 alle 18 UTC
Vento 5 kt da direzioni variabili

TAF: LIRQ 260500Z 2606/2706 VRB05KT 9999 SCT040 BECMG 2610/2612 24010KT BECMG 2616/2618 VRB05KT

Osservazioni e previsioni meteorologiche di più di 4000 aeroporti (messaggi METAR e TAF).

Le stazioni disponibili sono rappresentate dai dischi gialli e rossi sulla carta.

Puntare il mouse per vedere il nome della stazione.

Clicca sopra per visualizzare le osservazioni e previsioni meteorologiche.

Per cambiare la mappa : fare clic sui pulsanti verdi con una croce nera per ingrandire, il pulsante verde con un trattino per diminuire, o sulla freccia verde per le mappe adiacenti.


METAR-TAF: